sensor_id;sensor_type;location;lat;lon;timestamp;temperature;humidity
22568;DHT22;11450;50.818;4.382;2022-11-20T00:01:24;5.70;99.90
22568;DHT22;11450;50.818;4.382;2022-11-20T00:03:54;5.70;99.90
22568;DHT22;11450;50.818;4.382;2022-11-20T00:06:21;5.70;99.90
22568;DHT22;11450;50.818;4.382;2022-11-20T00:08:47;5.60;99.90
22568;DHT22;11450;50.818;4.382;2022-11-20T00:11:16;5.50;99.90
22568;DHT22;11450;50.818;4.382;2022-11-20T00:13:46;5.50;99.90
22568;DHT22;11450;50.818;4.382;2022-11-20T00:16:13;5.50;99.90
22568;DHT22;11450;50.818;4.382;2022-11-20T00:18:39;5.40;99.90
22568;DHT22;11450;50.818;4.382;2022-11-20T00:21:07;5.30;99.90
22568;DHT22;11450;50.818;4.382;2022-11-20T00:23:34;5.40;99.90
22568;DHT22;11450;50.818;4.382;2022-11-20T00:26:10;5.60;99.90
22568;DHT22;11450;50.818;4.382;2022-11-20T00:28:36;5.60;99.90
22568;DHT22;11450;50.818;4.382;2022-11-20T00:31:09;5.60;99.90
22568;DHT22;11450;50.818;4.382;2022-11-20T00:33:36;5.50;99.90
22568;DHT22;11450;50.818;4.382;2022-11-20T00:36:03;5.60;99.90
22568;DHT22;11450;50.818;4.382;2022-11-20T00:38:30;5.60;99.90
22568;DHT22;11450;50.818;4.382;2022-11-20T00:40:57;5.50;99.90
22568;DHT22;11450;50.818;4.382;2022-11-20T00:43:24;5.60;99.90
22568;DHT22;11450;50.818;4.382;2022-11-20T00:45:50;5.60;99.90
22568;DHT22;11450;50.818;4.382;2022-11-20T00:48:16;5.60;99.90
22568;DHT22;11450;50.818;4.382;2022-11-20T00:50:42;5.60;99.90
22568;DHT22;11450;50.818;4.382;2022-11-20T00:53:07;5.50;99.90
22568;DHT22;11450;50.818;4.382;2022-11-20T00:55:36;5.60;99.90
22568;DHT22;11450;50.818;4.382;2022-11-20T00:58:02;5.60;99.90
22568;DHT22;11450;50.818;4.382;2022-11-20T01:00:27;5.60;99.90
22568;DHT22;11450;50.818;4.382;2022-11-20T01:02:55;5.60;99.90
22568;DHT22;11450;50.818;4.382;2022-11-20T01:05:21;5.50;99.90
22568;DHT22;11450;50.818;4.382;2022-11-20T01:07:46;5.50;99.90
22568;DHT22;11450;50.818;4.382;2022-11-20T01:10:12;5.50;99.90
22568;DHT22;11450;50.818;4.382;2022-11-20T01:12:37;5.50;99.90
22568;DHT22;11450;50.818;4.382;2022-11-20T01:15:03;5.50;99.90
22568;DHT22;11450;50.818;4.382;2022-11-20T01:17:31;5.50;99.90
22568;DHT22;11450;50.818;4.382;2022-11-20T01:19:57;5.50;99.90
22568;DHT22;11450;50.818;4.382;2022-11-20T01:22:22;5.50;99.90
22568;DHT22;11450;50.818;4.382;2022-11-20T01:24:48;5.50;99.90
22568;DHT22;11450;50.818;4.382;2022-11-20T01:27:13;5.50;99.90
22568;DHT22;11450;50.818;4.382;2022-11-20T01:29:39;5.50;99.90
22568;DHT22;11450;50.818;4.382;2022-11-20T01:32:05;5.50;99.90
22568;DHT22;11450;50.818;4.382;2022-11-20T01:34:30;5.50;99.90
22568;DHT22;11450;50.818;4.382;2022-11-20T01:36:56;5.60;99.90
22568;DHT22;11450;50.818;4.382;2022-11-20T01:39:24;5.50;99.90
22568;DHT22;11450;50.818;4.382;2022-11-20T01:41:51;5.50;99.90
22568;DHT22;11450;50.818;4.382;2022-11-20T01:44:54;5.50;99.90
22568;DHT22;11450;50.818;4.382;2022-11-20T01:47:25;5.50;99.90
22568;DHT22;11450;50.818;4.382;2022-11-20T01:50:02;5.50;99.90
22568;DHT22;11450;50.818;4.382;2022-11-20T01:52:51;5.60;99.90
22568;DHT22;11450;50.818;4.382;2022-11-20T01:55:23;5.60;99.90
22568;DHT22;11450;50.818;4.382;2022-11-20T01:57:51;5.50;99.90
22568;DHT22;11450;50.818;4.382;2022-11-20T02:00:19;5.50;99.90
22568;DHT22;11450;50.818;4.382;2022-11-20T02:02:57;5.60;99.90
22568;DHT22;11450;50.818;4.382;2022-11-20T02:05:26;5.70;99.90
22568;DHT22;11450;50.818;4.382;2022-11-20T02:07:55;5.60;99.90
22568;DHT22;11450;50.818;4.382;2022-11-20T02:10:22;5.60;99.90
22568;DHT22;11450;50.818;4.382;2022-11-20T02:12:48;5.70;99.90
22568;DHT22;11450;50.818;4.382;2022-11-20T02:15:33;5.70;99.90
22568;DHT22;11450;50.818;4.382;2022-11-20T02:17:59;5.80;99.90
22568;DHT22;11450;50.818;4.382;2022-11-20T02:20:25;5.70;99.90
22568;DHT22;11450;50.818;4.382;2022-11-20T02:23:00;5.70;99.90
22568;DHT22;11450;50.818;4.382;2022-11-20T02:25:28;5.60;99.90
22568;DHT22;11450;50.818;4.382;2022-11-20T02:27:54;5.60;99.90
22568;DHT22;11450;50.818;4.382;2022-11-20T02:30:20;5.70;99.90
22568;DHT22;11450;50.818;4.382;2022-11-20T02:32:45;5.70;99.90
22568;DHT22;11450;50.818;4.382;2022-11-20T02:37:52;5.50;99.90
22568;DHT22;11450;50.818;4.382;2022-11-20T02:40:18;5.40;99.90
22568;DHT22;11450;50.818;4.382;2022-11-20T02:42:44;5.50;99.90
22568;DHT22;11450;50.818;4.382;2022-11-20T02:45:10;5.50;99.90
22568;DHT22;11450;50.818;4.382;2022-11-20T02:47:36;5.40;99.90
22568;DHT22;11450;50.818;4.382;2022-11-20T02:50:01;5.40;99.90
22568;DHT22;11450;50.818;4.382;2022-11-20T02:52:27;5.50;99.90
22568;DHT22;11450;50.818;4.382;2022-11-20T02:54:53;5.50;99.90
22568;DHT22;11450;50.818;4.382;2022-11-20T02:57:18;5.60;99.90
22568;DHT22;11450;50.818;4.382;2022-11-20T02:59:44;5.40;99.90
22568;DHT22;11450;50.818;4.382;2022-11-20T03:02:09;5.40;99.90
22568;DHT22;11450;50.818;4.382;2022-11-20T03:04:35;5.30;99.90
22568;DHT22;11450;50.818;4.382;2022-11-20T03:07:01;5.40;99.90
22568;DHT22;11450;50.818;4.382;2022-11-20T03:09:26;5.50;99.90
22568;DHT22;11450;50.818;4.382;2022-11-20T03:11:52;5.50;99.90
22568;DHT22;11450;50.818;4.382;2022-11-20T03:14:17;5.50;99.90
22568;DHT22;11450;50.818;4.382;2022-11-20T03:16:43;5.50;99.90
22568;DHT22;11450;50.818;4.382;2022-11-20T03:19:09;5.50;99.90
22568;DHT22;11450;50.818;4.382;2022-11-20T03:21:36;5.50;99.90
22568;DHT22;11450;50.818;4.382;2022-11-20T03:24:02;5.60;99.90
22568;DHT22;11450;50.818;4.382;2022-11-20T03:26:28;5.50;99.90
22568;DHT22;11450;50.818;4.382;2022-11-20T03:28:56;5.60;99.90
22568;DHT22;11450;50.818;4.382;2022-11-20T03:31:24;5.60;99.90
22568;DHT22;11450;50.818;4.382;2022-11-20T03:33:50;5.70;99.90
22568;DHT22;11450;50.818;4.382;2022-11-20T03:36:17;5.80;99.90
22568;DHT22;11450;50.818;4.382;2022-11-20T03:38:43;5.70;99.90
22568;DHT22;11450;50.818;4.382;2022-11-20T03:41:11;5.80;99.90
22568;DHT22;11450;50.818;4.382;2022-11-20T03:43:37;5.90;99.90
22568;DHT22;11450;50.818;4.382;2022-11-20T03:46:04;6.00;99.90
22568;DHT22;11450;50.818;4.382;2022-11-20T03:48:30;5.90;99.90
22568;DHT22;11450;50.818;4.382;2022-11-20T03:51:08;5.90;99.90
22568;DHT22;11450;50.818;4.382;2022-11-20T03:53:34;6.00;99.90
22568;DHT22;11450;50.818;4.382;2022-11-20T03:56:00;5.80;99.90
22568;DHT22;11450;50.818;4.382;2022-11-20T03:58:25;5.90;99.90
22568;DHT22;11450;50.818;4.382;2022-11-20T04:00:51;5.90;99.90
22568;DHT22;11450;50.818;4.382;2022-11-20T04:03:17;5.90;99.90
22568;DHT22;11450;50.818;4.382;2022-11-20T04:05:42;5.70;99.90
22568;DHT22;11450;50.818;4.382;2022-11-20T04:08:08;5.70;99.90
22568;DHT22;11450;50.818;4.382;2022-11-20T04:10:34;5.70;99.90
22568;DHT22;11450;50.818;4.382;2022-11-20T04:12:59;5.60;99.90
22568;DHT22;11450;50.818;4.382;2022-11-20T04:15:25;5.60;99.90
22568;DHT22;11450;50.818;4.382;2022-11-20T04:17:50;5.60;99.90
22568;DHT22;11450;50.818;4.382;2022-11-20T04:20:16;5.70;99.90
22568;DHT22;11450;50.818;4.382;2022-11-20T04:22:41;5.70;99.90
22568;DHT22;11450;50.818;4.382;2022-11-20T04:25:08;5.60;99.90
22568;DHT22;11450;50.818;4.382;2022-11-20T04:27:33;5.60;99.90
22568;DHT22;11450;50.818;4.382;2022-11-20T04:29:59;5.60;99.90
22568;DHT22;11450;50.818;4.382;2022-11-20T04:32:25;5.60;99.90
22568;DHT22;11450;50.818;4.382;2022-11-20T04:34:50;5.60;99.90
22568;DHT22;11450;50.818;4.382;2022-11-20T04:37:16;5.70;99.90
22568;DHT22;11450;50.818;4.382;2022-11-20T04:39:41;5.70;99.90
22568;DHT22;11450;50.818;4.382;2022-11-20T04:42:09;5.70;99.90
22568;DHT22;11450;50.818;4.382;2022-11-20T04:44:53;5.70;99.90
22568;DHT22;11450;50.818;4.382;2022-11-20T04:47:19;5.60;99.90
22568;DHT22;11450;50.818;4.382;2022-11-20T04:49:45;5.70;99.90
22568;DHT22;11450;50.818;4.382;2022-11-20T04:52:10;5.70;99.90
22568;DHT22;11450;50.818;4.382;2022-11-20T04:54:36;5.70;99.90
22568;DHT22;11450;50.818;4.382;2022-11-20T04:57:01;5.80;99.90
22568;DHT22;11450;50.818;4.382;2022-11-20T04:59:27;5.80;99.90
22568;DHT22;11450;50.818;4.382;2022-11-20T05:01:53;5.80;99.90
22568;DHT22;11450;50.818;4.382;2022-11-20T05:04:18;5.80;99.90
22568;DHT22;11450;50.818;4.382;2022-11-20T05:06:44;5.80;99.90
22568;DHT22;11450;50.818;4.382;2022-11-20T05:09:11;5.70;99.90
22568;DHT22;11450;50.818;4.382;2022-11-20T05:11:37;5.60;99.90
22568;DHT22;11450;50.818;4.382;2022-11-20T05:14:03;5.60;99.90
22568;DHT22;11450;50.818;4.382;2022-11-20T05:16:28;5.70;99.90
22568;DHT22;11450;50.818;4.382;2022-11-20T05:18:55;5.60;99.90
22568;DHT22;11450;50.818;4.382;2022-11-20T05:21:21;5.60;99.90
22568;DHT22;11450;50.818;4.382;2022-11-20T05:23:48;5.60;99.90
22568;DHT22;11450;50.818;4.382;2022-11-20T05:26:21;5.70;99.90
22568;DHT22;11450;50.818;4.382;2022-11-20T05:28:47;5.60;99.90
22568;DHT22;11450;50.818;4.382;2022-11-20T05:31:22;5.70;99.90
22568;DHT22;11450;50.818;4.382;2022-11-20T05:33:47;5.70;99.90
22568;DHT22;11450;50.818;4.382;2022-11-20T05:36:14;5.70;99.90
22568;DHT22;11450;50.818;4.382;2022-11-20T05:38:41;5.70;99.90
22568;DHT22;11450;50.818;4.382;2022-11-20T05:41:18;5.70;99.90
22568;DHT22;11450;50.818;4.382;2022-11-20T05:43:45;5.70;99.90
22568;DHT22;11450;50.818;4.382;2022-11-20T05:46:13;5.80;99.90
22568;DHT22;11450;50.818;4.382;2022-11-20T05:48:40;5.70;99.90
22568;DHT22;11450;50.818;4.382;2022-11-20T05:51:08;5.70;99.90
22568;DHT22;11450;50.818;4.382;2022-11-20T05:53:35;5.70;99.90
22568;DHT22;11450;50.818;4.382;2022-11-20T05:56:23;5.80;99.90
22568;DHT22;11450;50.818;4.382;2022-11-20T05:58:49;5.70;99.90
22568;DHT22;11450;50.818;4.382;2022-11-20T06:01:18;5.70;99.90
22568;DHT22;11450;50.818;4.382;2022-11-20T06:03:45;5.80;99.90
22568;DHT22;11450;50.818;4.382;2022-11-20T06:06:14;5.80;99.90
22568;DHT22;11450;50.818;4.382;2022-11-20T06:08:40;5.80;99.90
22568;DHT22;11450;50.818;4.382;2022-11-20T06:11:07;5.80;99.90
22568;DHT22;11450;50.818;4.382;2022-11-20T06:13:34;5.90;99.90
22568;DHT22;11450;50.818;4.382;2022-11-20T06:16:00;5.80;99.90
22568;DHT22;11450;50.818;4.382;2022-11-20T06:18:27;5.70;99.90
22568;DHT22;11450;50.818;4.382;2022-11-20T06:21:05;5.90;99.90
22568;DHT22;11450;50.818;4.382;2022-11-20T06:23:32;5.80;99.90
22568;DHT22;11450;50.818;4.382;2022-11-20T06:26:05;5.80;99.90
22568;DHT22;11450;50.818;4.382;2022-11-20T06:28:31;5.80;99.90
22568;DHT22;11450;50.818;4.382;2022-11-20T06:30:58;5.90;99.90
22568;DHT22;11450;50.818;4.382;2022-11-20T06:33:23;5.90;99.90
22568;DHT22;11450;50.818;4.382;2022-11-20T06:35:49;5.90;99.90
22568;DHT22;11450;50.818;4.382;2022-11-20T06:38:15;6.10;99.90
22568;DHT22;11450;50.818;4.382;2022-11-20T06:40:41;5.90;99.90
22568;DHT22;11450;50.818;4.382;2022-11-20T06:43:08;5.80;99.90
22568;DHT22;11450;50.818;4.382;2022-11-20T06:45:33;5.80;99.90
22568;DHT22;11450;50.818;4.382;2022-11-20T06:47:59;5.90;99.90
22568;DHT22;11450;50.818;4.382;2022-11-20T06:50:25;6.00;99.90
22568;DHT22;11450;50.818;4.382;2022-11-20T06:52:50;6.00;99.90
22568;DHT22;11450;50.818;4.382;2022-11-20T06:55:16;6.00;99.90
22568;DHT22;11450;50.818;4.382;2022-11-20T06:57:41;6.00;99.90
22568;DHT22;11450;50.818;4.382;2022-11-20T07:00:07;5.90;99.90
22568;DHT22;11450;50.818;4.382;2022-11-20T07:02:33;5.90;99.90
22568;DHT22;11450;50.818;4.382;2022-11-20T07:04:59;5.90;99.90
22568;DHT22;11450;50.818;4.382;2022-11-20T07:07:24;6.00;99.90
22568;DHT22;11450;50.818;4.382;2022-11-20T07:09:50;6.00;99.90
22568;DHT22;11450;50.818;4.382;2022-11-20T07:12:15;6.00;99.90
22568;DHT22;11450;50.818;4.382;2022-11-20T07:14:41;6.10;99.90
22568;DHT22;11450;50.818;4.382;2022-11-20T07:17:07;6.20;99.90
22568;DHT22;11450;50.818;4.382;2022-11-20T07:19:32;6.20;99.90
22568;DHT22;11450;50.818;4.382;2022-11-20T07:21:58;6.30;99.90
22568;DHT22;11450;50.818;4.382;2022-11-20T07:24:23;6.40;99.90
22568;DHT22;11450;50.818;4.382;2022-11-20T07:26:49;6.30;99.90
22568;DHT22;11450;50.818;4.382;2022-11-20T07:29:15;6.30;99.90
22568;DHT22;11450;50.818;4.382;2022-11-20T07:31:42;6.40;99.90
22568;DHT22;11450;50.818;4.382;2022-11-20T07:34:08;6.40;99.90
22568;DHT22;11450;50.818;4.382;2022-11-20T07:36:34;6.50;99.90
22568;DHT22;11450;50.818;4.382;2022-11-20T07:38:59;6.60;99.90
22568;DHT22;11450;50.818;4.382;2022-11-20T07:41:25;6.60;99.90
22568;DHT22;11450;50.818;4.382;2022-11-20T07:43:50;6.50;99.90
22568;DHT22;11450;50.818;4.382;2022-11-20T07:46:16;6.50;99.90
22568;DHT22;11450;50.818;4.382;2022-11-20T07:48:42;6.50;99.90
22568;DHT22;11450;50.818;4.382;2022-11-20T07:51:07;6.50;99.90
22568;DHT22;11450;50.818;4.382;2022-11-20T07:53:33;6.40;99.90
22568;DHT22;11450;50.818;4.382;2022-11-20T07:56:02;6.30;99.90
22568;DHT22;11450;50.818;4.382;2022-11-20T07:58:31;6.30;99.90
22568;DHT22;11450;50.818;4.382;2022-11-20T08:01:05;6.20;99.90
22568;DHT22;11450;50.818;4.382;2022-11-20T08:03:30;6.30;99.90
22568;DHT22;11450;50.818;4.382;2022-11-20T08:05:59;6.30;99.90
22568;DHT22;11450;50.818;4.382;2022-11-20T08:08:26;6.30;99.90
22568;DHT22;11450;50.818;4.382;2022-11-20T08:10:52;6.40;99.90
22568;DHT22;11450;50.818;4.382;2022-11-20T08:13:18;6.40;99.90
22568;DHT22;11450;50.818;4.382;2022-11-20T08:16:02;6.50;99.90
22568;DHT22;11450;50.818;4.382;2022-11-20T08:18:27;6.40;99.90
22568;DHT22;11450;50.818;4.382;2022-11-20T08:20:53;6.40;99.90
22568;DHT22;11450;50.818;4.382;2022-11-20T08:23:19;6.40;99.90
22568;DHT22;11450;50.818;4.382;2022-11-20T08:25:49;6.60;99.90
22568;DHT22;11450;50.818;4.382;2022-11-20T08:28:15;6.60;99.90
22568;DHT22;11450;50.818;4.382;2022-11-20T08:30:40;6.60;99.90
22568;DHT22;11450;50.818;4.382;2022-11-20T08:33:08;6.80;99.90
22568;DHT22;11450;50.818;4.382;2022-11-20T08:35:35;6.90;99.90
22568;DHT22;11450;50.818;4.382;2022-11-20T08:38:02;6.80;99.90
22568;DHT22;11450;50.818;4.382;2022-11-20T08:40:28;6.80;99.90
22568;DHT22;11450;50.818;4.382;2022-11-20T08:42:54;6.80;99.90
22568;DHT22;11450;50.818;4.382;2022-11-20T08:45:19;6.80;99.90
22568;DHT22;11450;50.818;4.382;2022-11-20T08:47:46;6.90;99.90
22568;DHT22;11450;50.818;4.382;2022-11-20T08:50:13;6.90;99.90
22568;DHT22;11450;50.818;4.382;2022-11-20T08:52:39;7.00;99.90
22568;DHT22;11450;50.818;4.382;2022-11-20T08:55:06;7.00;99.90
22568;DHT22;11450;50.818;4.382;2022-11-20T08:57:33;7.00;99.90
22568;DHT22;11450;50.818;4.382;2022-11-20T08:59:59;7.10;99.90
22568;DHT22;11450;50.818;4.382;2022-11-20T09:02:24;7.10;99.90
22568;DHT22;11450;50.818;4.382;2022-11-20T09:04:50;7.20;99.90
22568;DHT22;11450;50.818;4.382;2022-11-20T09:07:16;7.20;99.90
22568;DHT22;11450;50.818;4.382;2022-11-20T09:09:42;7.20;99.90
22568;DHT22;11450;50.818;4.382;2022-11-20T09:12:07;7.30;99.90
22568;DHT22;11450;50.818;4.382;2022-11-20T09:14:33;7.30;99.90
22568;DHT22;11450;50.818;4.382;2022-11-20T09:16:59;7.30;99.90
22568;DHT22;11450;50.818;4.382;2022-11-20T09:19:24;7.30;99.90
22568;DHT22;11450;50.818;4.382;2022-11-20T09:21:50;7.40;99.90
22568;DHT22;11450;50.818;4.382;2022-11-20T09:24:16;7.40;99.90
22568;DHT22;11450;50.818;4.382;2022-11-20T09:26:42;7.40;99.90
22568;DHT22;11450;50.818;4.382;2022-11-20T09:29:08;7.40;99.90
22568;DHT22;11450;50.818;4.382;2022-11-20T09:31:33;7.50;99.90
22568;DHT22;11450;50.818;4.382;2022-11-20T09:33:59;7.50;99.90
22568;DHT22;11450;50.818;4.382;2022-11-20T09:36:24;7.60;99.90
22568;DHT22;11450;50.818;4.382;2022-11-20T09:38:50;7.50;99.90
22568;DHT22;11450;50.818;4.382;2022-11-20T09:47:08;7.90;99.90
22568;DHT22;11450;50.818;4.382;2022-11-20T09:55:10;8.00;99.90
22568;DHT22;11450;50.818;4.382;2022-11-20T09:57:42;7.90;99.90
22568;DHT22;11450;50.818;4.382;2022-11-20T10:00:11;8.00;99.90
22568;DHT22;11450;50.818;4.382;2022-11-20T10:02:44;8.10;99.90
22568;DHT22;11450;50.818;4.382;2022-11-20T10:05:21;8.20;99.90
22568;DHT22;11450;50.818;4.382;2022-11-20T10:10:29;8.30;99.90
22568;DHT22;11450;50.818;4.382;2022-11-20T10:19:00;8.50;99.90
22568;DHT22;11450;50.818;4.382;2022-11-20T10:21:52;8.50;99.90
22568;DHT22;11450;50.818;4.382;2022-11-20T10:30:13;8.60;99.90
22568;DHT22;11450;50.818;4.382;2022-11-20T10:33:13;8.70;99.90
22568;DHT22;11450;50.818;4.382;2022-11-20T10:35:49;8.70;99.90
22568;DHT22;11450;50.818;4.382;2022-11-20T10:38:23;8.80;99.90
22568;DHT22;11450;50.818;4.382;2022-11-20T10:40:54;8.90;99.90
22568;DHT22;11450;50.818;4.382;2022-11-20T10:43:42;9.00;99.90
22568;DHT22;11450;50.818;4.382;2022-11-20T10:46:17;9.00;99.90
22568;DHT22;11450;50.818;4.382;2022-11-20T10:48:43;9.00;99.90
22568;DHT22;11450;50.818;4.382;2022-11-20T10:51:15;9.10;99.90
22568;DHT22;11450;50.818;4.382;2022-11-20T10:56:33;9.10;99.90
22568;DHT22;11450;50.818;4.382;2022-11-20T11:01:53;9.10;99.90
22568;DHT22;11450;50.818;4.382;2022-11-20T11:06:58;9.00;99.90
22568;DHT22;11450;50.818;4.382;2022-11-20T11:09:35;9.20;99.90
22568;DHT22;11450;50.818;4.382;2022-11-20T11:12:06;9.20;99.90
22568;DHT22;11450;50.818;4.382;2022-11-20T11:14:46;9.20;99.90
22568;DHT22;11450;50.818;4.382;2022-11-20T11:17:22;9.20;99.90
22568;DHT22;11450;50.818;4.382;2022-11-20T11:20:02;9.10;99.90
22568;DHT22;11450;50.818;4.382;2022-11-20T11:22:30;9.20;99.90
22568;DHT22;11450;50.818;4.382;2022-11-20T11:24:56;9.20;99.90
22568;DHT22;11450;50.818;4.382;2022-11-20T11:27:22;9.20;99.90
22568;DHT22;11450;50.818;4.382;2022-11-20T11:29:48;9.20;99.90
22568;DHT22;11450;50.818;4.382;2022-11-20T11:32:21;9.20;99.90
22568;DHT22;11450;50.818;4.382;2022-11-20T11:35:18;9.20;99.90
22568;DHT22;11450;50.818;4.382;2022-11-20T11:38:06;9.20;99.90
22568;DHT22;11450;50.818;4.382;2022-11-20T11:40:37;9.10;99.90
22568;DHT22;11450;50.818;4.382;2022-11-20T11:43:18;9.30;99.90
22568;DHT22;11450;50.818;4.382;2022-11-20T11:46:23;9.10;99.90
22568;DHT22;11450;50.818;4.382;2022-11-20T11:49:18;9.20;99.90
22568;DHT22;11450;50.818;4.382;2022-11-20T11:52:04;9.20;99.90
22568;DHT22;11450;50.818;4.382;2022-11-20T11:54:50;9.20;99.90
22568;DHT22;11450;50.818;4.382;2022-11-20T12:00:12;9.10;99.90
22568;DHT22;11450;50.818;4.382;2022-11-20T12:05:47;8.90;99.90
22568;DHT22;11450;50.818;4.382;2022-11-20T12:08:37;8.90;99.90
22568;DHT22;11450;50.818;4.382;2022-11-20T12:11:15;8.80;99.90
22568;DHT22;11450;50.818;4.382;2022-11-20T12:16:28;8.80;99.90
22568;DHT22;11450;50.818;4.382;2022-11-20T12:19:01;8.80;99.90
22568;DHT22;11450;50.818;4.382;2022-11-20T12:30:20;8.60;99.90
22568;DHT22;11450;50.818;4.382;2022-11-20T12:33:40;8.70;99.90
22568;DHT22;11450;50.818;4.382;2022-11-20T12:36:23;8.70;99.90
22568;DHT22;11450;50.818;4.382;2022-11-20T12:53:28;8.70;99.90
22568;DHT22;11450;50.818;4.382;2022-11-20T13:02:02;8.60;99.90
22568;DHT22;11450;50.818;4.382;2022-11-20T13:07:30;8.70;99.90
22568;DHT22;11450;50.818;4.382;2022-11-20T13:10:37;8.70;99.90
22568;DHT22;11450;50.818;4.382;2022-11-20T13:16:56;8.60;99.90
22568;DHT22;11450;50.818;4.382;2022-11-20T13:19:24;8.60;99.90
22568;DHT22;11450;50.818;4.382;2022-11-20T13:21:54;8.60;99.90
22568;DHT22;11450;50.818;4.382;2022-11-20T13:27:01;8.60;99.90
22568;DHT22;11450;50.818;4.382;2022-11-20T13:32:36;8.50;99.90
22568;DHT22;11450;50.818;4.382;2022-11-20T13:35:33;8.50;99.90
22568;DHT22;11450;50.818;4.382;2022-11-20T13:38:11;8.50;99.90
22568;DHT22;11450;50.818;4.382;2022-11-20T13:40:49;8.50;99.90
22568;DHT22;11450;50.818;4.382;2022-11-20T13:43:18;8.40;99.90
22568;DHT22;11450;50.818;4.382;2022-11-20T13:45:59;8.50;99.90
22568;DHT22;11450;50.818;4.382;2022-11-20T13:48:32;8.50;99.90
22568;DHT22;11450;50.818;4.382;2022-11-20T13:51:09;8.50;99.90
22568;DHT22;11450;50.818;4.382;2022-11-20T14:02:19;8.60;99.90
22568;DHT22;11450;50.818;4.382;2022-11-20T14:04:49;8.50;99.90
22568;DHT22;11450;50.818;4.382;2022-11-20T14:07:46;8.50;99.90
22568;DHT22;11450;50.818;4.382;2022-11-20T14:10:25;8.50;99.90
22568;DHT22;11450;50.818;4.382;2022-11-20T14:12:51;8.50;99.90
22568;DHT22;11450;50.818;4.382;2022-11-20T14:15:31;8.50;99.90
22568;DHT22;11450;50.818;4.382;2022-11-20T14:17:58;8.60;99.90
22568;DHT22;11450;50.818;4.382;2022-11-20T14:20:29;8.50;99.90
22568;DHT22;11450;50.818;4.382;2022-11-20T14:22:57;8.40;99.90
22568;DHT22;11450;50.818;4.382;2022-11-20T14:25:24;8.40;99.90
22568;DHT22;11450;50.818;4.382;2022-11-20T14:27:58;8.40;99.90
22568;DHT22;11450;50.818;4.382;2022-11-20T14:30:45;8.50;99.90
22568;DHT22;11450;50.818;4.382;2022-11-20T14:33:15;8.50;99.90
22568;DHT22;11450;50.818;4.382;2022-11-20T14:35:46;8.50;99.90
22568;DHT22;11450;50.818;4.382;2022-11-20T14:38:14;8.50;99.90
22568;DHT22;11450;50.818;4.382;2022-11-20T14:40:41;8.60;99.90
22568;DHT22;11450;50.818;4.382;2022-11-20T14:43:27;8.60;99.90
22568;DHT22;11450;50.818;4.382;2022-11-20T14:46:10;8.60;99.90
22568;DHT22;11450;50.818;4.382;2022-11-20T14:48:45;8.60;99.90
22568;DHT22;11450;50.818;4.382;2022-11-20T14:54:14;8.60;99.90
22568;DHT22;11450;50.818;4.382;2022-11-20T14:56:41;8.60;99.90
22568;DHT22;11450;50.818;4.382;2022-11-20T14:59:08;8.70;99.90
22568;DHT22;11450;50.818;4.382;2022-11-20T15:01:34;8.70;99.90
22568;DHT22;11450;50.818;4.382;2022-11-20T15:04:05;8.70;99.90
22568;DHT22;11450;50.818;4.382;2022-11-20T15:06:31;8.80;99.90
22568;DHT22;11450;50.818;4.382;2022-11-20T15:08:57;8.80;99.90
22568;DHT22;11450;50.818;4.382;2022-11-20T15:11:29;8.80;99.90
22568;DHT22;11450;50.818;4.382;2022-11-20T15:13:56;8.90;99.90
22568;DHT22;11450;50.818;4.382;2022-11-20T15:16:23;8.90;99.90
22568;DHT22;11450;50.818;4.382;2022-11-20T15:18:49;8.90;99.90
22568;DHT22;11450;50.818;4.382;2022-11-20T15:21:17;9.00;99.90
22568;DHT22;11450;50.818;4.382;2022-11-20T15:23:43;9.00;99.90
22568;DHT22;11450;50.818;4.382;2022-11-20T15:26:10;9.00;99.90
22568;DHT22;11450;50.818;4.382;2022-11-20T15:28:59;9.00;99.90
22568;DHT22;11450;50.818;4.382;2022-11-20T15:31:24;9.00;99.90
22568;DHT22;11450;50.818;4.382;2022-11-20T15:33:50;9.20;99.90
22568;DHT22;11450;50.818;4.382;2022-11-20T15:36:16;9.10;99.90
22568;DHT22;11450;50.818;4.382;2022-11-20T15:38:42;9.10;99.90
22568;DHT22;11450;50.818;4.382;2022-11-20T15:41:11;9.10;99.90
22568;DHT22;11450;50.818;4.382;2022-11-20T15:43:37;9.10;99.90
22568;DHT22;11450;50.818;4.382;2022-11-20T15:46:06;9.00;99.90
22568;DHT22;11450;50.818;4.382;2022-11-20T15:48:51;9.10;99.90
22568;DHT22;11450;50.818;4.382;2022-11-20T15:51:28;9.00;99.90
22568;DHT22;11450;50.818;4.382;2022-11-20T15:53:55;9.10;99.90
22568;DHT22;11450;50.818;4.382;2022-11-20T15:56:20;9.10;99.90
22568;DHT22;11450;50.818;4.382;2022-11-20T15:59:01;9.10;99.90
22568;DHT22;11450;50.818;4.382;2022-11-20T16:01:27;9.10;99.90
22568;DHT22;11450;50.818;4.382;2022-11-20T16:03:53;9.10;99.90
22568;DHT22;11450;50.818;4.382;2022-11-20T16:06:18;9.20;99.90
22568;DHT22;11450;50.818;4.382;2022-11-20T16:08:44;9.20;99.90
22568;DHT22;11450;50.818;4.382;2022-11-20T16:11:13;9.20;99.90
22568;DHT22;11450;50.818;4.382;2022-11-20T16:13:39;9.20;99.90
22568;DHT22;11450;50.818;4.382;2022-11-20T16:16:29;9.20;99.90
22568;DHT22;11450;50.818;4.382;2022-11-20T16:18:56;9.30;99.90
22568;DHT22;11450;50.818;4.382;2022-11-20T16:21:21;9.30;99.90
22568;DHT22;11450;50.818;4.382;2022-11-20T16:23:53;9.30;99.90
22568;DHT22;11450;50.818;4.382;2022-11-20T16:26:19;9.30;99.90
22568;DHT22;11450;50.818;4.382;2022-11-20T16:28:46;9.30;99.90
22568;DHT22;11450;50.818;4.382;2022-11-20T16:31:17;9.30;99.90
22568;DHT22;11450;50.818;4.382;2022-11-20T16:33:48;9.30;99.90
22568;DHT22;11450;50.818;4.382;2022-11-20T16:36:15;9.30;99.90
22568;DHT22;11450;50.818;4.382;2022-11-20T16:38:42;9.30;99.90
22568;DHT22;11450;50.818;4.382;2022-11-20T16:41:08;9.30;99.90
22568;DHT22;11450;50.818;4.382;2022-11-20T16:44:00;9.20;99.90
22568;DHT22;11450;50.818;4.382;2022-11-20T16:46:27;9.30;99.90
22568;DHT22;11450;50.818;4.382;2022-11-20T16:51:19;9.30;99.90
22568;DHT22;11450;50.818;4.382;2022-11-20T16:53:45;9.20;99.90
22568;DHT22;11450;50.818;4.382;2022-11-20T16:56:16;9.20;99.90
22568;DHT22;11450;50.818;4.382;2022-11-20T16:58:43;9.20;99.90
22568;DHT22;11450;50.818;4.382;2022-11-20T17:01:12;9.30;99.90
22568;DHT22;11450;50.818;4.382;2022-11-20T17:03:42;9.40;99.90
22568;DHT22;11450;50.818;4.382;2022-11-20T17:06:17;9.20;99.90
22568;DHT22;11450;50.818;4.382;2022-11-20T17:08:44;9.20;99.90
22568;DHT22;11450;50.818;4.382;2022-11-20T17:11:15;9.20;99.90
22568;DHT22;11450;50.818;4.382;2022-11-20T17:13:41;9.30;99.90
22568;DHT22;11450;50.818;4.382;2022-11-20T17:16:09;9.30;99.90
22568;DHT22;11450;50.818;4.382;2022-11-20T17:18:35;9.40;99.90
22568;DHT22;11450;50.818;4.382;2022-11-20T17:21:01;9.40;99.90
22568;DHT22;11450;50.818;4.382;2022-11-20T17:23:31;9.40;99.90
22568;DHT22;11450;50.818;4.382;2022-11-20T17:26:11;9.40;99.90
22568;DHT22;11450;50.818;4.382;2022-11-20T17:28:39;9.30;99.90
22568;DHT22;11450;50.818;4.382;2022-11-20T17:31:07;9.30;99.90
22568;DHT22;11450;50.818;4.382;2022-11-20T17:33:34;9.30;99.90
22568;DHT22;11450;50.818;4.382;2022-11-20T17:36:00;9.20;99.90
22568;DHT22;11450;50.818;4.382;2022-11-20T17:38:26;9.20;99.90
22568;DHT22;11450;50.818;4.382;2022-11-20T17:40:52;9.30;99.90